sensor_id;sensor_type;location;lat;lon;timestamp;temperature;humidity
62476;DHT22;50739;45.670;11.936;2022-09-01T00:02:49;22.90;80.75
62476;DHT22;50739;45.670;11.936;2022-09-01T00:07:50;22.91;80.77
62476;DHT22;50739;45.670;11.936;2022-09-01T00:12:54;22.83;80.53
62476;DHT22;50739;45.670;11.936;2022-09-01T00:17:56;22.78;80.73
62476;DHT22;50739;45.670;11.936;2022-09-01T00:22:57;22.84;80.96
62476;DHT22;50739;45.670;11.936;2022-09-01T00:28:01;22.84;81.43
62476;DHT22;50739;45.670;11.936;2022-09-01T00:33:04;22.81;80.94
62476;DHT22;50739;45.670;11.936;2022-09-01T00:38:06;22.76;80.49
62476;DHT22;50739;45.670;11.936;2022-09-01T00:43:14;22.76;80.75
62476;DHT22;50739;45.670;11.936;2022-09-01T00:48:18;22.83;80.67
62476;DHT22;50739;45.670;11.936;2022-09-01T00:53:21;22.81;80.97
62476;DHT22;50739;45.670;11.936;2022-09-01T00:58:24;22.81;80.59
62476;DHT22;50739;45.670;11.936;2022-09-01T01:03:27;22.76;80.95
62476;DHT22;50739;45.670;11.936;2022-09-01T01:08:32;22.81;81.06
62476;DHT22;50739;45.670;11.936;2022-09-01T01:13:49;22.74;81.05
62476;DHT22;50739;45.670;11.936;2022-09-01T01:18:52;22.74;82.10
62476;DHT22;50739;45.670;11.936;2022-09-01T01:24:01;22.65;82.24
62476;DHT22;50739;45.670;11.936;2022-09-01T01:29:07;22.50;83.46
62476;DHT22;50739;45.670;11.936;2022-09-01T01:34:09;22.53;83.00
62476;DHT22;50739;45.670;11.936;2022-09-01T01:39:14;22.50;83.18
62476;DHT22;50739;45.670;11.936;2022-09-01T01:44:20;22.41;82.65
62476;DHT22;50739;45.670;11.936;2022-09-01T01:49:27;22.40;82.83
62476;DHT22;50739;45.670;11.936;2022-09-01T01:54:30;22.39;82.19
62476;DHT22;50739;45.670;11.936;2022-09-01T01:59:33;22.47;81.92
62476;DHT22;50739;45.670;11.936;2022-09-01T02:04:35;22.37;81.84
62476;DHT22;50739;45.670;11.936;2022-09-01T02:09:39;22.37;79.89
62476;DHT22;50739;45.670;11.936;2022-09-01T02:14:46;22.32;80.79
62476;DHT22;50739;45.670;11.936;2022-09-01T02:19:49;22.24;80.87
62476;DHT22;50739;45.670;11.936;2022-09-01T02:24:56;22.23;80.27
62476;DHT22;50739;45.670;11.936;2022-09-01T02:30:03;22.26;79.75
62476;DHT22;50739;45.670;11.936;2022-09-01T02:35:10;22.27;79.62
62476;DHT22;50739;45.670;11.936;2022-09-01T02:40:12;22.37;78.52
62476;DHT22;50739;45.670;11.936;2022-09-01T02:45:16;22.43;77.61
62476;DHT22;50739;45.670;11.936;2022-09-01T02:50:19;22.48;77.14
62476;DHT22;50739;45.670;11.936;2022-09-01T02:55:21;22.41;77.31
62476;DHT22;50739;45.670;11.936;2022-09-01T03:00:25;22.37;76.39
62476;DHT22;50739;45.670;11.936;2022-09-01T03:05:31;22.37;76.35
62476;DHT22;50739;45.670;11.936;2022-09-01T03:10:35;22.33;76.08
62476;DHT22;50739;45.670;11.936;2022-09-01T03:15:40;22.32;75.45
62476;DHT22;50739;45.670;11.936;2022-09-01T03:20:43;22.29;75.49
62476;DHT22;50739;45.670;11.936;2022-09-01T03:25:46;22.36;74.38
62476;DHT22;50739;45.670;11.936;2022-09-01T03:30:51;22.32;74.12
62476;DHT22;50739;45.670;11.936;2022-09-01T03:35:53;22.35;74.11
62476;DHT22;50739;45.670;11.936;2022-09-01T03:40:58;22.33;73.47
62476;DHT22;50739;45.670;11.936;2022-09-01T03:46:04;22.21;73.33
62476;DHT22;50739;45.670;11.936;2022-09-01T03:51:09;22.21;73.17
62476;DHT22;50739;45.670;11.936;2022-09-01T03:56:13;22.33;72.24
62476;DHT22;50739;45.670;11.936;2022-09-01T04:01:18;22.21;72.61
62476;DHT22;50739;45.670;11.936;2022-09-01T04:06:20;22.20;72.78
62476;DHT22;50739;45.670;11.936;2022-09-01T04:11:23;22.16;72.55
62476;DHT22;50739;45.670;11.936;2022-09-01T04:16:28;22.09;72.74
62476;DHT22;50739;45.670;11.936;2022-09-01T04:21:48;22.13;72.50
62476;DHT22;50739;45.670;11.936;2022-09-01T04:26:51;22.06;72.40
62476;DHT22;50739;45.670;11.936;2022-09-01T04:31:55;22.02;72.33
62476;DHT22;50739;45.670;11.936;2022-09-01T04:37:01;22.06;72.26
62476;DHT22;50739;45.670;11.936;2022-09-01T04:42:03;22.02;71.91
62476;DHT22;50739;45.670;11.936;2022-09-01T04:47:07;21.95;72.22
62476;DHT22;50739;45.670;11.936;2022-09-01T04:52:10;21.93;73.48
62476;DHT22;50739;45.670;11.936;2022-09-01T04:57:12;21.95;72.78
62476;DHT22;50739;45.670;11.936;2022-09-01T05:02:17;21.98;72.11
62476;DHT22;50739;45.670;11.936;2022-09-01T05:07:19;21.96;72.10
62476;DHT22;50739;45.670;11.936;2022-09-01T05:12:23;21.93;72.54
62476;DHT22;50739;45.670;11.936;2022-09-01T05:17:28;21.93;72.22
62476;DHT22;50739;45.670;11.936;2022-09-01T05:22:30;22.05;71.60
62476;DHT22;50739;45.670;11.936;2022-09-01T05:27:32;22.05;72.06
62476;DHT22;50739;45.670;11.936;2022-09-01T05:32:35;22.02;72.01
62476;DHT22;50739;45.670;11.936;2022-09-01T05:37:39;22.06;71.14
62476;DHT22;50739;45.670;11.936;2022-09-01T05:42:42;22.09;71.39
62476;DHT22;50739;45.670;11.936;2022-09-01T05:47:45;22.12;71.21
62476;DHT22;50739;45.670;11.936;2022-09-01T05:52:48;22.14;71.37
62476;DHT22;50739;45.670;11.936;2022-09-01T05:57:50;22.17;71.04
62476;DHT22;50739;45.670;11.936;2022-09-01T06:02:54;22.26;70.45
62476;DHT22;50739;45.670;11.936;2022-09-01T06:07:57;22.29;70.82
62476;DHT22;50739;45.670;11.936;2022-09-01T06:13:00;22.39;70.02
62476;DHT22;50739;45.670;11.936;2022-09-01T06:18:04;22.47;69.04
62476;DHT22;50739;45.670;11.936;2022-09-01T06:23:06;22.51;69.90
62476;DHT22;50739;45.670;11.936;2022-09-01T06:28:08;22.61;68.93
62476;DHT22;50739;45.670;11.936;2022-09-01T06:33:14;22.64;68.52
62476;DHT22;50739;45.670;11.936;2022-09-01T06:38:15;22.64;69.00
62476;DHT22;50739;45.670;11.936;2022-09-01T06:43:18;22.75;67.88
62476;DHT22;50739;45.670;11.936;2022-09-01T06:48:21;22.76;68.03
62476;DHT22;50739;45.670;11.936;2022-09-01T06:53:23;22.85;67.39
62476;DHT22;50739;45.670;11.936;2022-09-01T06:58:26;23.05;66.29
62476;DHT22;50739;45.670;11.936;2022-09-01T07:03:30;22.99;66.99
62476;DHT22;50739;45.670;11.936;2022-09-01T07:08:33;23.09;66.09
62476;DHT22;50739;45.670;11.936;2022-09-01T07:13:38;23.16;65.61
62476;DHT22;50739;45.670;11.936;2022-09-01T07:18:42;23.13;66.18
62476;DHT22;50739;45.670;11.936;2022-09-01T07:23:45;23.09;65.50
62476;DHT22;50739;45.670;11.936;2022-09-01T07:28:48;23.16;65.76
62476;DHT22;50739;45.670;11.936;2022-09-01T07:33:53;23.23;65.12
62476;DHT22;50739;45.670;11.936;2022-09-01T07:38:58;23.39;65.29
62476;DHT22;50739;45.670;11.936;2022-09-01T07:44:01;23.50;64.94
62476;DHT22;50739;45.670;11.936;2022-09-01T07:49:06;23.66;63.96
62476;DHT22;50739;45.670;11.936;2022-09-01T07:54:08;23.75;64.09
62476;DHT22;50739;45.670;11.936;2022-09-01T07:59:13;23.91;63.54
62476;DHT22;50739;45.670;11.936;2022-09-01T08:04:16;24.04;63.57
62476;DHT22;50739;45.670;11.936;2022-09-01T08:09:22;24.33;63.40
62476;DHT22;50739;45.670;11.936;2022-09-01T08:14:24;24.40;63.64
62476;DHT22;50739;45.670;11.936;2022-09-01T08:19:27;24.48;63.92
62476;DHT22;50739;45.670;11.936;2022-09-01T08:24:30;24.59;63.31
62476;DHT22;50739;45.670;11.936;2022-09-01T08:29:32;24.79;62.13
62476;DHT22;50739;45.670;11.936;2022-09-01T08:34:36;24.80;62.25
62476;DHT22;50739;45.670;11.936;2022-09-01T08:39:38;25.08;61.23
62476;DHT22;50739;45.670;11.936;2022-09-01T08:44:43;25.24;61.13
62476;DHT22;50739;45.670;11.936;2022-09-01T08:49:49;25.24;61.10
62476;DHT22;50739;45.670;11.936;2022-09-01T08:54:54;25.22;60.65
62476;DHT22;50739;45.670;11.936;2022-09-01T08:59:59;25.35;59.83
62476;DHT22;50739;45.670;11.936;2022-09-01T09:05:06;25.35;60.35
62476;DHT22;50739;45.670;11.936;2022-09-01T09:10:13;25.46;59.58
62476;DHT22;50739;45.670;11.936;2022-09-01T09:15:23;25.39;61.54
62476;DHT22;50739;45.670;11.936;2022-09-01T09:20:28;25.53;60.63
62476;DHT22;50739;45.670;11.936;2022-09-01T09:25:30;25.49;60.74
62476;DHT22;50739;45.670;11.936;2022-09-01T09:30:32;25.59;60.23
62476;DHT22;50739;45.670;11.936;2022-09-01T09:35:37;25.61;60.01
62476;DHT22;50739;45.670;11.936;2022-09-01T09:40:55;25.63;60.69
62476;DHT22;50739;45.670;11.936;2022-09-01T09:46:20;25.59;60.17
62476;DHT22;50739;45.670;11.936;2022-09-01T09:51:24;25.58;60.15
62476;DHT22;50739;45.670;11.936;2022-09-01T09:56:27;25.79;60.39
62476;DHT22;50739;45.670;11.936;2022-09-01T10:01:29;26.10;57.98
62476;DHT22;50739;45.670;11.936;2022-09-01T10:06:35;26.14;57.99
62476;DHT22;50739;45.670;11.936;2022-09-01T10:11:39;26.14;58.45
62476;DHT22;50739;45.670;11.936;2022-09-01T10:16:42;26.44;58.70
62476;DHT22;50739;45.670;11.936;2022-09-01T10:21:46;26.45;58.57
62476;DHT22;50739;45.670;11.936;2022-09-01T10:26:50;26.49;57.52
62476;DHT22;50739;45.670;11.936;2022-09-01T10:31:54;26.25;58.23
62476;DHT22;50739;45.670;11.936;2022-09-01T10:36:58;26.49;57.37
62476;DHT22;50739;45.670;11.936;2022-09-01T10:42:01;26.75;55.98
62476;DHT22;50739;45.670;11.936;2022-09-01T10:47:09;26.82;55.83
62476;DHT22;50739;45.670;11.936;2022-09-01T10:58:01;26.94;54.82
62476;DHT22;50739;45.670;11.936;2022-09-01T11:03:34;27.08;54.48
62476;DHT22;50739;45.670;11.936;2022-09-01T11:08:43;27.35;53.00
62476;DHT22;50739;45.670;11.936;2022-09-01T11:13:47;27.52;54.81
62476;DHT22;50739;45.670;11.936;2022-09-01T11:18:49;27.90;52.85
62476;DHT22;50739;45.670;11.936;2022-09-01T11:29:51;28.23;51.87
62476;DHT22;50739;45.670;11.936;2022-09-01T11:34:55;27.93;50.82
62476;DHT22;50739;45.670;11.936;2022-09-01T11:39:59;28.17;50.84
62476;DHT22;50739;45.670;11.936;2022-09-01T11:45:05;28.25;51.00
62476;DHT22;50739;45.670;11.936;2022-09-01T11:50:18;28.12;52.14
62476;DHT22;50739;45.670;11.936;2022-09-01T11:55:28;28.34;49.25
62476;DHT22;50739;45.670;11.936;2022-09-01T12:00:34;28.30;50.77
62476;DHT22;50739;45.670;11.936;2022-09-01T12:05:37;28.39;50.62
62476;DHT22;50739;45.670;11.936;2022-09-01T12:10:40;28.62;50.20
62476;DHT22;50739;45.670;11.936;2022-09-01T12:15:52;28.74;50.30
62476;DHT22;50739;45.670;11.936;2022-09-01T12:20:56;29.07;50.98
62476;DHT22;50739;45.670;11.936;2022-09-01T12:26:00;29.29;50.74
62476;DHT22;50739;45.670;11.936;2022-09-01T12:31:05;29.68;50.99
62476;DHT22;50739;45.670;11.936;2022-09-01T12:36:23;28.58;52.10
62476;DHT22;50739;45.670;11.936;2022-09-01T12:41:34;28.55;51.78
62476;DHT22;50739;45.670;11.936;2022-09-01T12:46:43;28.44;51.52
62476;DHT22;50739;45.670;11.936;2022-09-01T12:51:45;29.23;51.03
62476;DHT22;50739;45.670;11.936;2022-09-01T12:56:49;29.10;49.87
62476;DHT22;50739;45.670;11.936;2022-09-01T13:01:52;28.65;51.43
62476;DHT22;50739;45.670;11.936;2022-09-01T13:07:00;28.48;51.74
62476;DHT22;50739;45.670;11.936;2022-09-01T13:12:16;28.23;52.74
62476;DHT22;50739;45.670;11.936;2022-09-01T13:17:19;27.90;53.11
62476;DHT22;50739;45.670;11.936;2022-09-01T13:22:21;27.73;53.19
62476;DHT22;50739;45.670;11.936;2022-09-01T13:27:23;27.47;52.86
62476;DHT22;50739;45.670;11.936;2022-09-01T13:32:26;27.54;53.22
62476;DHT22;50739;45.670;11.936;2022-09-01T13:37:28;27.68;53.35
62476;DHT22;50739;45.670;11.936;2022-09-01T13:42:29;27.57;51.72
62476;DHT22;50739;45.670;11.936;2022-09-01T13:47:33;27.26;53.84
62476;DHT22;50739;45.670;11.936;2022-09-01T13:52:35;27.08;54.70
62476;DHT22;50739;45.670;11.936;2022-09-01T13:57:37;27.04;53.28
62476;DHT22;50739;45.670;11.936;2022-09-01T14:02:43;27.06;54.81
62476;DHT22;50739;45.670;11.936;2022-09-01T14:07:48;27.24;53.96
62476;DHT22;50739;45.670;11.936;2022-09-01T14:12:50;27.30;53.55
62476;DHT22;50739;45.670;11.936;2022-09-01T14:17:55;28.27;51.31
62476;DHT22;50739;45.670;11.936;2022-09-01T14:22:57;29.13;48.48
62476;DHT22;50739;45.670;11.936;2022-09-01T14:28:00;28.85;47.64
62476;DHT22;50739;45.670;11.936;2022-09-01T14:33:04;28.64;47.96
62476;DHT22;50739;45.670;11.936;2022-09-01T14:38:07;28.51;48.49
62476;DHT22;50739;45.670;11.936;2022-09-01T14:43:10;28.13;48.53
62476;DHT22;50739;45.670;11.936;2022-09-01T14:48:15;28.10;55.47
62476;DHT22;50739;45.670;11.936;2022-09-01T14:53:17;27.85;56.91
62476;DHT22;50739;45.670;11.936;2022-09-01T14:58:20;29.54;53.08
62476;DHT22;50739;45.670;11.936;2022-09-01T15:03:23;30.13;51.73
62476;DHT22;50739;45.670;11.936;2022-09-01T15:08:25;30.19;51.21
62476;DHT22;50739;45.670;11.936;2022-09-01T15:13:27;30.71;49.55
62476;DHT22;50739;45.670;11.936;2022-09-01T15:18:30;29.44;52.49
62476;DHT22;50739;45.670;11.936;2022-09-01T15:23:32;28.10;55.29
62476;DHT22;50739;45.670;11.936;2022-09-01T15:28:34;28.40;54.31
62476;DHT22;50739;45.670;11.936;2022-09-01T15:33:37;29.54;50.62
62476;DHT22;50739;45.670;11.936;2022-09-01T15:38:39;30.77;43.50
62476;DHT22;50739;45.670;11.936;2022-09-01T15:43:41;29.99;44.07
62476;DHT22;50739;45.670;11.936;2022-09-01T15:48:44;29.97;43.51
62476;DHT22;50739;45.670;11.936;2022-09-01T15:53:46;30.75;42.53
62476;DHT22;50739;45.670;11.936;2022-09-01T15:58:49;29.80;43.73
62476;DHT22;50739;45.670;11.936;2022-09-01T16:03:53;28.76;46.13
62476;DHT22;50739;45.670;11.936;2022-09-01T16:08:56;28.68;46.80
62476;DHT22;50739;45.670;11.936;2022-09-01T16:13:58;27.92;48.48
62476;DHT22;50739;45.670;11.936;2022-09-01T16:19:06;27.33;49.63
62476;DHT22;50739;45.670;11.936;2022-09-01T16:24:12;27.41;48.82
62476;DHT22;50739;45.670;11.936;2022-09-01T16:29:18;27.35;48.64
62476;DHT22;50739;45.670;11.936;2022-09-01T16:34:22;26.76;50.47
62476;DHT22;50739;45.670;11.936;2022-09-01T16:39:29;26.46;49.72
62476;DHT22;50739;45.670;11.936;2022-09-01T16:44:40;26.18;50.74
62476;DHT22;50739;45.670;11.936;2022-09-01T16:49:51;25.91;50.91
62476;DHT22;50739;45.670;11.936;2022-09-01T16:55:19;25.89;50.19
62476;DHT22;50739;45.670;11.936;2022-09-01T17:00:42;25.69;49.88
62476;DHT22;50739;45.670;11.936;2022-09-01T17:05:53;25.56;50.02
62476;DHT22;50739;45.670;11.936;2022-09-01T17:11:00;25.47;50.11
62476;DHT22;50739;45.670;11.936;2022-09-01T17:16:08;25.31;51.57
62476;DHT22;50739;45.670;11.936;2022-09-01T17:21:17;25.26;49.99
62476;DHT22;50739;45.670;11.936;2022-09-01T17:26:24;25.12;49.70
62476;DHT22;50739;45.670;11.936;2022-09-01T17:31:46;25.11;49.70
62476;DHT22;50739;45.670;11.936;2022-09-01T17:36:58;24.98;50.50
62476;DHT22;50739;45.670;11.936;2022-09-01T17:42:13;24.87;50.70
62476;DHT22;50739;45.670;11.936;2022-09-01T17:47:32;24.77;52.02
62476;DHT22;50739;45.670;11.936;2022-09-01T17:52:45;24.63;52.78
62476;DHT22;50739;45.670;11.936;2022-09-01T17:57:55;24.67;54.00
62476;DHT22;50739;45.670;11.936;2022-09-01T18:03:13;24.39;56.70
62476;DHT22;50739;45.670;11.936;2022-09-01T18:08:28;24.22;57.87
62476;DHT22;50739;45.670;11.936;2022-09-01T18:13:35;23.95;59.58
62476;DHT22;50739;45.670;11.936;2022-09-01T18:18:40;23.84;58.77
62476;DHT22;50739;45.670;11.936;2022-09-01T18:23:45;23.81;58.48
62476;DHT22;50739;45.670;11.936;2022-09-01T18:28:50;23.81;57.43
62476;DHT22;50739;45.670;11.936;2022-09-01T18:34:02;23.88;56.38
62476;DHT22;50739;45.670;11.936;2022-09-01T18:39:12;23.45;66.95
62476;DHT22;50739;45.670;11.936;2022-09-01T18:44:31;23.15;71.08
62476;DHT22;50739;45.670;11.936;2022-09-01T18:49:48;23.24;71.45
62476;DHT22;50739;45.670;11.936;2022-09-01T18:55:00;23.09;72.24
62476;DHT22;50739;45.670;11.936;2022-09-01T19:00:08;23.09;71.56
62476;DHT22;50739;45.670;11.936;2022-09-01T19:05:18;23.09;70.36
62476;DHT22;50739;45.670;11.936;2022-09-01T19:10:28;23.06;70.72
62476;DHT22;50739;45.670;11.936;2022-09-01T19:15:36;23.03;71.60
62476;DHT22;50739;45.670;11.936;2022-09-01T19:20:46;22.91;71.71
62476;DHT22;50739;45.670;11.936;2022-09-01T19:25:58;22.92;70.84
62476;DHT22;50739;45.670;11.936;2022-09-01T19:31:07;22.76;72.58
62476;DHT22;50739;45.670;11.936;2022-09-01T19:36:15;22.72;72.74
62476;DHT22;50739;45.670;11.936;2022-09-01T19:41:23;22.63;73.31
62476;DHT22;50739;45.670;11.936;2022-09-01T19:46:30;22.72;73.03
62476;DHT22;50739;45.670;11.936;2022-09-01T19:51:40;22.56;72.90
62476;DHT22;50739;45.670;11.936;2022-09-01T19:56:50;22.39;72.72
62476;DHT22;50739;45.670;11.936;2022-09-01T20:01:56;22.40;71.83
62476;DHT22;50739;45.670;11.936;2022-09-01T20:07:00;22.44;71.82
62476;DHT22;50739;45.670;11.936;2022-09-01T20:12:11;22.41;71.76
62476;DHT22;50739;45.670;11.936;2022-09-01T20:17:19;22.35;71.91
62476;DHT22;50739;45.670;11.936;2022-09-01T20:22:27;22.32;71.65
62476;DHT22;50739;45.670;11.936;2022-09-01T20:27:37;22.23;72.12
62476;DHT22;50739;45.670;11.936;2022-09-01T20:32:47;22.33;71.76
62476;DHT22;50739;45.670;11.936;2022-09-01T20:37:56;22.23;72.34
62476;DHT22;50739;45.670;11.936;2022-09-01T20:43:16;22.24;72.78
62476;DHT22;50739;45.670;11.936;2022-09-01T20:48:24;22.14;73.10
62476;DHT22;50739;45.670;11.936;2022-09-01T20:53:37;22.16;72.91
62476;DHT22;50739;45.670;11.936;2022-09-01T20:58:45;22.09;73.04
62476;DHT22;50739;45.670;11.936;2022-09-01T21:03:56;21.96;73.19
62476;DHT22;50739;45.670;11.936;2022-09-01T21:09:03;21.99;73.12
62476;DHT22;50739;45.670;11.936;2022-09-01T21:14:18;22.00;73.53
62476;DHT22;50739;45.670;11.936;2022-09-01T21:19:27;21.91;74.07
62476;DHT22;50739;45.670;11.936;2022-09-01T21:24:29;21.86;74.39
62476;DHT22;50739;45.670;11.936;2022-09-01T21:29:42;21.95;74.12
62476;DHT22;50739;45.670;11.936;2022-09-01T21:34:47;21.79;74.99
62476;DHT22;50739;45.670;11.936;2022-09-01T21:39:50;21.82;74.79
62476;DHT22;50739;45.670;11.936;2022-09-01T21:44:54;21.83;74.59
62476;DHT22;50739;45.670;11.936;2022-09-01T21:49:57;21.81;74.09
62476;DHT22;50739;45.670;11.936;2022-09-01T21:54:59;21.83;73.79
62476;DHT22;50739;45.670;11.936;2022-09-01T22:00:04;21.83;73.14
62476;DHT22;50739;45.670;11.936;2022-09-01T22:05:07;21.82;72.41
62476;DHT22;50739;45.670;11.936;2022-09-01T22:10:13;21.77;73.17
62476;DHT22;50739;45.670;11.936;2022-09-01T22:15:20;21.72;75.61
62476;DHT22;50739;45.670;11.936;2022-09-01T22:20:23;21.68;76.48
62476;DHT22;50739;45.670;11.936;2022-09-01T22:25:25;21.54;76.67
62476;DHT22;50739;45.670;11.936;2022-09-01T22:30:29;21.44;76.86
62476;DHT22;50739;45.670;11.936;2022-09-01T22:35:31;21.54;76.04
62476;DHT22;50739;45.670;11.936;2022-09-01T22:40:33;21.40;76.42
62476;DHT22;50739;45.670;11.936;2022-09-01T22:45:39;21.44;76.82
62476;DHT22;50739;45.670;11.936;2022-09-01T22:50:43;21.27;77.40
62476;DHT22;50739;45.670;11.936;2022-09-01T22:55:49;21.26;77.86
62476;DHT22;50739;45.670;11.936;2022-09-01T23:00:55;21.23;77.69
62476;DHT22;50739;45.670;11.936;2022-09-01T23:06:03;21.31;76.91
62476;DHT22;50739;45.670;11.936;2022-09-01T23:11:06;21.30;77.28
62476;DHT22;50739;45.670;11.936;2022-09-01T23:16:11;21.43;76.68
62476;DHT22;50739;45.670;11.936;2022-09-01T23:21:15;21.26;77.27
62476;DHT22;50739;45.670;11.936;2022-09-01T23:26:18;21.40;76.23
62476;DHT22;50739;45.670;11.936;2022-09-01T23:31:24;21.27;77.31
62476;DHT22;50739;45.670;11.936;2022-09-01T23:36:27;21.37;74.49
62476;DHT22;50739;45.670;11.936;2022-09-01T23:41:32;21.27;76.14
62476;DHT22;50739;45.670;11.936;2022-09-01T23:46:37;21.31;75.71
62476;DHT22;50739;45.670;11.936;2022-09-01T23:51:40;21.38;76.06
62476;DHT22;50739;45.670;11.936;2022-09-01T23:56:43;21.19;76.43
